sensor_id;sensor_type;location;lat;lon;timestamp;P1;durP1;ratioP1;P2;durP2;ratioP2
74849;SDS011;63397;47.480;19.238;2023-05-16T00:01:43;12.37;;;6.67;;
74849;SDS011;63397;47.480;19.238;2023-05-16T00:04:46;11.20;;;6.30;;
74849;SDS011;63397;47.480;19.238;2023-05-16T00:07:49;12.60;;;6.57;;
74849;SDS011;63397;47.480;19.238;2023-05-16T00:10:51;13.52;;;6.43;;
74849;SDS011;63397;47.480;19.238;2023-05-16T00:13:53;14.27;;;6.60;;
74849;SDS011;63397;47.480;19.238;2023-05-16T00:16:55;13.63;;;6.80;;
74849;SDS011;63397;47.480;19.238;2023-05-16T00:20:02;14.23;;;7.55;;
74849;SDS011;63397;47.480;19.238;2023-05-16T00:23:08;14.20;;;7.60;;
74849;SDS011;63397;47.480;19.238;2023-05-16T00:26:10;14.90;;;6.97;;
74849;SDS011;63397;47.480;19.238;2023-05-16T00:29:15;15.68;;;8.38;;
74849;SDS011;63397;47.480;19.238;2023-05-16T00:32:17;14.60;;;7.23;;
74849;SDS011;63397;47.480;19.238;2023-05-16T00:35:20;15.25;;;7.82;;
74849;SDS011;63397;47.480;19.238;2023-05-16T00:38:23;16.40;;;8.52;;
74849;SDS011;63397;47.480;19.238;2023-05-16T00:41:25;15.43;;;7.55;;
74849;SDS011;63397;47.480;19.238;2023-05-16T00:44:28;16.40;;;8.25;;
74849;SDS011;63397;47.480;19.238;2023-05-16T00:47:31;16.33;;;8.10;;
74849;SDS011;63397;47.480;19.238;2023-05-16T00:50:35;18.38;;;8.30;;
74849;SDS011;63397;47.480;19.238;2023-05-16T00:53:37;16.20;;;8.18;;
74849;SDS011;63397;47.480;19.238;2023-05-16T00:56:40;18.77;;;8.48;;
74849;SDS011;63397;47.480;19.238;2023-05-16T00:59:45;16.63;;;8.45;;
74849;SDS011;63397;47.480;19.238;2023-05-16T01:02:47;17.73;;;8.90;;
74849;SDS011;63397;47.480;19.238;2023-05-16T01:05:50;18.13;;;8.95;;
74849;SDS011;63397;47.480;19.238;2023-05-16T01:08:52;20.33;;;9.60;;
74849;SDS011;63397;47.480;19.238;2023-05-16T01:11:59;20.25;;;9.90;;
74849;SDS011;63397;47.480;19.238;2023-05-16T01:15:11;20.50;;;9.48;;
74849;SDS011;63397;47.480;19.238;2023-05-16T01:21:43;23.38;;;10.57;;
74849;SDS011;63397;47.480;19.238;2023-05-16T01:28:00;23.45;;;10.02;;
74849;SDS011;63397;47.480;19.238;2023-05-16T01:31:03;21.42;;;10.13;;
74849;SDS011;63397;47.480;19.238;2023-05-16T01:34:05;22.97;;;10.63;;
74849;SDS011;63397;47.480;19.238;2023-05-16T01:37:23;28.88;;;12.45;;
74849;SDS011;63397;47.480;19.238;2023-05-16T01:43:42;26.50;;;11.13;;
74849;SDS011;63397;47.480;19.238;2023-05-16T01:46:45;24.95;;;11.48;;
74849;SDS011;63397;47.480;19.238;2023-05-16T01:50:08;24.53;;;11.63;;
74849;SDS011;63397;47.480;19.238;2023-05-16T01:53:13;25.77;;;11.85;;
74849;SDS011;63397;47.480;19.238;2023-05-16T01:56:16;25.33;;;11.10;;
74849;SDS011;63397;47.480;19.238;2023-05-16T01:59:19;22.45;;;11.65;;
74849;SDS011;63397;47.480;19.238;2023-05-16T02:02:23;18.67;;;10.27;;
74849;SDS011;63397;47.480;19.238;2023-05-16T02:05:25;19.50;;;9.70;;
74849;SDS011;63397;47.480;19.238;2023-05-16T02:08:28;16.77;;;9.15;;
74849;SDS011;63397;47.480;19.238;2023-05-16T02:11:30;16.33;;;8.93;;
74849;SDS011;63397;47.480;19.238;2023-05-16T02:14:32;19.13;;;9.50;;
74849;SDS011;63397;47.480;19.238;2023-05-16T02:17:35;17.52;;;9.07;;
74849;SDS011;63397;47.480;19.238;2023-05-16T02:20:37;14.37;;;8.43;;
74849;SDS011;63397;47.480;19.238;2023-05-16T02:23:40;16.70;;;8.93;;
74849;SDS011;63397;47.480;19.238;2023-05-16T02:26:43;14.35;;;7.70;;
74849;SDS011;63397;47.480;19.238;2023-05-16T02:29:45;15.30;;;7.93;;
74849;SDS011;63397;47.480;19.238;2023-05-16T02:32:47;15.55;;;8.07;;
74849;SDS011;63397;47.480;19.238;2023-05-16T02:35:51;10.73;;;6.90;;
74849;SDS011;63397;47.480;19.238;2023-05-16T02:38:53;12.35;;;7.25;;
74849;SDS011;63397;47.480;19.238;2023-05-16T02:41:57;11.38;;;6.93;;
74849;SDS011;63397;47.480;19.238;2023-05-16T02:44:59;11.18;;;6.85;;
74849;SDS011;63397;47.480;19.238;2023-05-16T02:48:01;9.65;;;6.07;;
74849;SDS011;63397;47.480;19.238;2023-05-16T02:51:04;8.73;;;5.50;;
74849;SDS011;63397;47.480;19.238;2023-05-16T02:54:06;10.18;;;5.65;;
74849;SDS011;63397;47.480;19.238;2023-05-16T02:57:11;10.32;;;6.20;;
74849;SDS011;63397;47.480;19.238;2023-05-16T03:00:13;10.48;;;6.20;;
74849;SDS011;63397;47.480;19.238;2023-05-16T03:03:19;10.77;;;7.20;;
74849;SDS011;63397;47.480;19.238;2023-05-16T03:06:22;12.70;;;7.27;;
74849;SDS011;63397;47.480;19.238;2023-05-16T03:09:24;12.52;;;7.82;;
74849;SDS011;63397;47.480;19.238;2023-05-16T03:12:27;13.32;;;7.93;;
74849;SDS011;63397;47.480;19.238;2023-05-16T03:15:29;11.18;;;6.55;;
74849;SDS011;63397;47.480;19.238;2023-05-16T03:18:31;11.63;;;6.93;;
74849;SDS011;63397;47.480;19.238;2023-05-16T03:21:34;11.37;;;6.20;;
74849;SDS011;63397;47.480;19.238;2023-05-16T03:24:36;8.90;;;5.63;;
74849;SDS011;63397;47.480;19.238;2023-05-16T03:27:38;10.48;;;6.22;;
74849;SDS011;63397;47.480;19.238;2023-05-16T03:30:41;11.02;;;5.80;;
74849;SDS011;63397;47.480;19.238;2023-05-16T03:33:43;9.80;;;5.95;;
74849;SDS011;63397;47.480;19.238;2023-05-16T03:36:46;11.37;;;5.10;;
74849;SDS011;63397;47.480;19.238;2023-05-16T03:39:48;10.57;;;5.55;;
74849;SDS011;63397;47.480;19.238;2023-05-16T03:42:51;8.75;;;5.45;;
74849;SDS011;63397;47.480;19.238;2023-05-16T03:45:53;8.02;;;5.28;;
74849;SDS011;63397;47.480;19.238;2023-05-16T03:48:55;9.25;;;4.82;;
74849;SDS011;63397;47.480;19.238;2023-05-16T03:51:58;8.37;;;4.20;;
74849;SDS011;63397;47.480;19.238;2023-05-16T03:55:00;8.60;;;3.95;;
74849;SDS011;63397;47.480;19.238;2023-05-16T03:58:06;7.72;;;4.72;;
74849;SDS011;63397;47.480;19.238;2023-05-16T04:01:08;7.65;;;4.50;;
74849;SDS011;63397;47.480;19.238;2023-05-16T04:04:11;19.27;;;5.15;;
74849;SDS011;63397;47.480;19.238;2023-05-16T04:07:13;7.87;;;4.93;;
74849;SDS011;63397;47.480;19.238;2023-05-16T04:10:16;9.20;;;5.20;;
74849;SDS011;63397;47.480;19.238;2023-05-16T04:13:18;8.63;;;4.65;;
74849;SDS011;63397;47.480;19.238;2023-05-16T04:16:21;7.88;;;4.68;;
74849;SDS011;63397;47.480;19.238;2023-05-16T04:19:23;8.27;;;4.50;;
74849;SDS011;63397;47.480;19.238;2023-05-16T04:22:25;8.10;;;3.90;;
74849;SDS011;63397;47.480;19.238;2023-05-16T04:25:28;6.70;;;3.60;;
74849;SDS011;63397;47.480;19.238;2023-05-16T04:28:31;5.47;;;2.92;;
74849;SDS011;63397;47.480;19.238;2023-05-16T04:31:33;7.32;;;3.42;;
74849;SDS011;63397;47.480;19.238;2023-05-16T04:34:35;6.05;;;3.50;;
74849;SDS011;63397;47.480;19.238;2023-05-16T04:37:41;7.60;;;4.30;;
74849;SDS011;63397;47.480;19.238;2023-05-16T04:40:43;12.57;;;4.97;;
74849;SDS011;63397;47.480;19.238;2023-05-16T04:43:46;11.75;;;5.68;;
74849;SDS011;63397;47.480;19.238;2023-05-16T04:46:48;10.63;;;5.45;;
74849;SDS011;63397;47.480;19.238;2023-05-16T04:49:50;12.80;;;6.47;;
74849;SDS011;63397;47.480;19.238;2023-05-16T04:52:53;14.33;;;6.70;;
74849;SDS011;63397;47.480;19.238;2023-05-16T04:55:57;11.80;;;6.05;;
74849;SDS011;63397;47.480;19.238;2023-05-16T04:58:59;13.13;;;6.85;;
74849;SDS011;63397;47.480;19.238;2023-05-16T05:02:02;15.20;;;7.03;;
74849;SDS011;63397;47.480;19.238;2023-05-16T05:05:05;13.35;;;6.60;;
74849;SDS011;63397;47.480;19.238;2023-05-16T05:08:08;14.53;;;6.53;;
74849;SDS011;63397;47.480;19.238;2023-05-16T05:11:10;14.30;;;7.32;;
74849;SDS011;63397;47.480;19.238;2023-05-16T05:14:13;13.18;;;6.82;;
74849;SDS011;63397;47.480;19.238;2023-05-16T05:17:16;13.65;;;6.80;;
74849;SDS011;63397;47.480;19.238;2023-05-16T05:20:18;11.93;;;6.88;;
74849;SDS011;63397;47.480;19.238;2023-05-16T05:23:20;13.47;;;6.40;;
74849;SDS011;63397;47.480;19.238;2023-05-16T05:26:23;13.73;;;7.53;;
74849;SDS011;63397;47.480;19.238;2023-05-16T05:29:27;12.25;;;6.60;;
74849;SDS011;63397;47.480;19.238;2023-05-16T05:32:29;13.27;;;6.53;;
74849;SDS011;63397;47.480;19.238;2023-05-16T05:35:32;12.75;;;6.65;;
74849;SDS011;63397;47.480;19.238;2023-05-16T05:38:34;12.77;;;6.20;;
74849;SDS011;63397;47.480;19.238;2023-05-16T05:41:38;12.57;;;6.13;;
74849;SDS011;63397;47.480;19.238;2023-05-16T05:44:42;11.27;;;6.18;;
74849;SDS011;63397;47.480;19.238;2023-05-16T05:47:47;11.93;;;6.05;;
74849;SDS011;63397;47.480;19.238;2023-05-16T05:50:50;12.80;;;6.57;;
74849;SDS011;63397;47.480;19.238;2023-05-16T05:53:54;12.50;;;6.43;;
74849;SDS011;63397;47.480;19.238;2023-05-16T05:56:57;12.40;;;6.50;;
74849;SDS011;63397;47.480;19.238;2023-05-16T06:00:02;13.30;;;6.57;;
74849;SDS011;63397;47.480;19.238;2023-05-16T06:03:08;12.95;;;6.78;;
74849;SDS011;63397;47.480;19.238;2023-05-16T06:06:11;17.15;;;6.82;;
74849;SDS011;63397;47.480;19.238;2023-05-16T06:09:13;13.77;;;6.23;;
74849;SDS011;63397;47.480;19.238;2023-05-16T06:12:16;13.18;;;6.60;;
74849;SDS011;63397;47.480;19.238;2023-05-16T06:15:18;13.10;;;6.38;;
74849;SDS011;63397;47.480;19.238;2023-05-16T06:18:20;15.35;;;7.38;;
74849;SDS011;63397;47.480;19.238;2023-05-16T06:21:23;15.18;;;6.82;;
74849;SDS011;63397;47.480;19.238;2023-05-16T06:24:25;14.97;;;6.80;;
74849;SDS011;63397;47.480;19.238;2023-05-16T06:27:27;13.57;;;7.00;;
74849;SDS011;63397;47.480;19.238;2023-05-16T06:30:30;13.15;;;6.72;;
74849;SDS011;63397;47.480;19.238;2023-05-16T06:33:32;13.80;;;6.63;;
74849;SDS011;63397;47.480;19.238;2023-05-16T06:36:35;15.30;;;7.15;;
74849;SDS011;63397;47.480;19.238;2023-05-16T06:39:38;13.83;;;6.33;;
74849;SDS011;63397;47.480;19.238;2023-05-16T06:42:40;13.45;;;6.15;;
74849;SDS011;63397;47.480;19.238;2023-05-16T06:45:43;17.95;;;7.78;;
74849;SDS011;63397;47.480;19.238;2023-05-16T06:48:45;13.85;;;6.35;;
74849;SDS011;63397;47.480;19.238;2023-05-16T06:51:49;15.23;;;6.57;;
74849;SDS011;63397;47.480;19.238;2023-05-16T06:54:58;16.93;;;7.27;;
74849;SDS011;63397;47.480;19.238;2023-05-16T06:58:00;15.25;;;7.50;;
74849;SDS011;63397;47.480;19.238;2023-05-16T07:01:03;15.30;;;7.70;;
74849;SDS011;63397;47.480;19.238;2023-05-16T07:04:06;18.45;;;7.90;;
74849;SDS011;63397;47.480;19.238;2023-05-16T07:07:08;16.77;;;7.13;;
74849;SDS011;63397;47.480;19.238;2023-05-16T07:10:10;16.80;;;7.23;;
74849;SDS011;63397;47.480;19.238;2023-05-16T07:13:13;16.73;;;7.35;;
74849;SDS011;63397;47.480;19.238;2023-05-16T07:16:15;17.73;;;7.72;;
74849;SDS011;63397;47.480;19.238;2023-05-16T07:19:17;18.90;;;7.82;;
74849;SDS011;63397;47.480;19.238;2023-05-16T07:22:20;18.52;;;7.93;;
74849;SDS011;63397;47.480;19.238;2023-05-16T07:25:23;20.57;;;8.33;;
74849;SDS011;63397;47.480;19.238;2023-05-16T07:28:25;19.73;;;8.25;;
74849;SDS011;63397;47.480;19.238;2023-05-16T07:31:28;18.67;;;8.00;;
74849;SDS011;63397;47.480;19.238;2023-05-16T07:34:30;23.40;;;9.27;;
74849;SDS011;63397;47.480;19.238;2023-05-16T07:37:33;24.00;;;9.82;;
74849;SDS011;63397;47.480;19.238;2023-05-16T07:40:35;31.80;;;9.20;;
74849;SDS011;63397;47.480;19.238;2023-05-16T07:43:37;24.98;;;9.80;;
74849;SDS011;63397;47.480;19.238;2023-05-16T07:46:40;29.63;;;10.43;;
74849;SDS011;63397;47.480;19.238;2023-05-16T07:49:46;24.80;;;8.98;;
74849;SDS011;63397;47.480;19.238;2023-05-16T07:52:49;21.67;;;7.80;;
74849;SDS011;63397;47.480;19.238;2023-05-16T07:55:56;21.33;;;7.70;;
74849;SDS011;63397;47.480;19.238;2023-05-16T07:58:59;21.70;;;8.95;;
74849;SDS011;63397;47.480;19.238;2023-05-16T08:02:02;22.20;;;8.57;;
74849;SDS011;63397;47.480;19.238;2023-05-16T08:05:04;20.15;;;7.72;;
74849;SDS011;63397;47.480;19.238;2023-05-16T08:08:07;21.70;;;8.68;;
74849;SDS011;63397;47.480;19.238;2023-05-16T08:11:09;18.73;;;6.97;;
74849;SDS011;63397;47.480;19.238;2023-05-16T08:14:12;15.38;;;6.20;;
74849;SDS011;63397;47.480;19.238;2023-05-16T08:17:14;15.05;;;5.90;;
74849;SDS011;63397;47.480;19.238;2023-05-16T08:20:17;13.82;;;5.53;;
74849;SDS011;63397;47.480;19.238;2023-05-16T08:23:19;11.77;;;4.75;;
74849;SDS011;63397;47.480;19.238;2023-05-16T08:26:22;8.47;;;3.70;;
74849;SDS011;63397;47.480;19.238;2023-05-16T08:29:24;7.57;;;3.28;;
74849;SDS011;63397;47.480;19.238;2023-05-16T08:32:27;7.63;;;2.88;;
74849;SDS011;63397;47.480;19.238;2023-05-16T08:35:30;8.63;;;3.40;;
74849;SDS011;63397;47.480;19.238;2023-05-16T08:38:32;6.78;;;2.63;;
74849;SDS011;63397;47.480;19.238;2023-05-16T08:41:35;6.90;;;2.83;;
74849;SDS011;63397;47.480;19.238;2023-05-16T08:44:37;7.03;;;2.70;;
74849;SDS011;63397;47.480;19.238;2023-05-16T08:47:40;6.07;;;2.65;;
74849;SDS011;63397;47.480;19.238;2023-05-16T08:50:43;8.10;;;2.85;;
74849;SDS011;63397;47.480;19.238;2023-05-16T08:53:51;8.05;;;3.50;;
74849;SDS011;63397;47.480;19.238;2023-05-16T08:56:54;7.17;;;3.23;;
74849;SDS011;63397;47.480;19.238;2023-05-16T08:59:57;7.25;;;3.00;;
74849;SDS011;63397;47.480;19.238;2023-05-16T09:03:00;7.50;;;3.30;;
74849;SDS011;63397;47.480;19.238;2023-05-16T09:06:04;7.10;;;3.05;;
74849;SDS011;63397;47.480;19.238;2023-05-16T09:09:09;7.03;;;2.55;;
74849;SDS011;63397;47.480;19.238;2023-05-16T09:12:13;6.27;;;2.77;;
74849;SDS011;63397;47.480;19.238;2023-05-16T09:15:17;6.25;;;2.88;;
74849;SDS011;63397;47.480;19.238;2023-05-16T09:18:19;9.05;;;3.60;;
74849;SDS011;63397;47.480;19.238;2023-05-16T09:21:26;6.47;;;2.92;;
74849;SDS011;63397;47.480;19.238;2023-05-16T09:24:29;8.00;;;3.40;;
74849;SDS011;63397;47.480;19.238;2023-05-16T09:27:32;6.13;;;2.67;;
74849;SDS011;63397;47.480;19.238;2023-05-16T09:30:40;6.35;;;2.70;;
74849;SDS011;63397;47.480;19.238;2023-05-16T09:33:43;10.05;;;4.05;;
74849;SDS011;63397;47.480;19.238;2023-05-16T09:36:45;7.07;;;3.45;;
74849;SDS011;63397;47.480;19.238;2023-05-16T09:39:48;7.30;;;3.42;;
74849;SDS011;63397;47.480;19.238;2023-05-16T09:43:05;8.27;;;3.27;;
74849;SDS011;63397;47.480;19.238;2023-05-16T09:46:11;10.20;;;4.15;;
74849;SDS011;63397;47.480;19.238;2023-05-16T09:49:13;9.50;;;3.97;;
74849;SDS011;63397;47.480;19.238;2023-05-16T09:52:16;10.38;;;4.45;;
74849;SDS011;63397;47.480;19.238;2023-05-16T09:55:24;10.68;;;4.72;;
74849;SDS011;63397;47.480;19.238;2023-05-16T09:58:31;12.13;;;5.40;;
74849;SDS011;63397;47.480;19.238;2023-05-16T10:01:33;10.70;;;5.50;;
74849;SDS011;63397;47.480;19.238;2023-05-16T10:04:37;12.57;;;5.85;;
74849;SDS011;63397;47.480;19.238;2023-05-16T10:07:40;13.43;;;5.30;;
74849;SDS011;63397;47.480;19.238;2023-05-16T10:10:43;9.68;;;4.43;;
74849;SDS011;63397;47.480;19.238;2023-05-16T10:13:47;11.27;;;5.53;;
74849;SDS011;63397;47.480;19.238;2023-05-16T10:16:56;13.45;;;6.28;;
74849;SDS011;63397;47.480;19.238;2023-05-16T10:20:05;16.20;;;5.63;;
74849;SDS011;63397;47.480;19.238;2023-05-16T10:23:10;12.95;;;4.90;;
74849;SDS011;63397;47.480;19.238;2023-05-16T10:26:15;10.25;;;5.75;;
74849;SDS011;63397;47.480;19.238;2023-05-16T10:29:18;10.53;;;4.97;;
74849;SDS011;63397;47.480;19.238;2023-05-16T10:32:22;11.18;;;5.70;;
74849;SDS011;63397;47.480;19.238;2023-05-16T10:35:25;11.95;;;5.50;;
74849;SDS011;63397;47.480;19.238;2023-05-16T10:38:29;9.90;;;5.20;;
74849;SDS011;63397;47.480;19.238;2023-05-16T10:41:32;9.88;;;5.03;;
74849;SDS011;63397;47.480;19.238;2023-05-16T10:44:35;9.63;;;4.67;;
74849;SDS011;63397;47.480;19.238;2023-05-16T10:47:49;9.02;;;4.75;;
74849;SDS011;63397;47.480;19.238;2023-05-16T10:50:54;9.70;;;4.80;;
74849;SDS011;63397;47.480;19.238;2023-05-16T10:54:03;9.05;;;4.50;;
74849;SDS011;63397;47.480;19.238;2023-05-16T10:57:10;10.02;;;4.85;;
74849;SDS011;63397;47.480;19.238;2023-05-16T11:00:20;9.23;;;4.37;;
74849;SDS011;63397;47.480;19.238;2023-05-16T11:03:23;9.63;;;4.70;;
74849;SDS011;63397;47.480;19.238;2023-05-16T11:06:30;12.30;;;5.32;;
74849;SDS011;63397;47.480;19.238;2023-05-16T11:09:36;9.50;;;5.00;;
74849;SDS011;63397;47.480;19.238;2023-05-16T11:12:47;8.93;;;4.93;;
74849;SDS011;63397;47.480;19.238;2023-05-16T11:15:50;11.30;;;5.33;;
74849;SDS011;63397;47.480;19.238;2023-05-16T11:18:53;10.80;;;5.13;;
74849;SDS011;63397;47.480;19.238;2023-05-16T11:25:10;10.90;;;5.35;;
74849;SDS011;63397;47.480;19.238;2023-05-16T11:28:13;9.88;;;5.70;;
74849;SDS011;63397;47.480;19.238;2023-05-16T11:31:16;13.20;;;6.50;;
74849;SDS011;63397;47.480;19.238;2023-05-16T11:34:19;11.80;;;5.10;;
74849;SDS011;63397;47.480;19.238;2023-05-16T11:37:22;10.35;;;5.35;;
74849;SDS011;63397;47.480;19.238;2023-05-16T11:40:25;13.90;;;6.13;;
74849;SDS011;63397;47.480;19.238;2023-05-16T11:43:27;13.80;;;5.90;;
74849;SDS011;63397;47.480;19.238;2023-05-16T11:46:30;10.60;;;5.67;;
74849;SDS011;63397;47.480;19.238;2023-05-16T11:49:33;11.10;;;5.70;;
74849;SDS011;63397;47.480;19.238;2023-05-16T11:52:36;11.63;;;5.88;;
74849;SDS011;63397;47.480;19.238;2023-05-16T11:55:39;13.80;;;5.60;;
74849;SDS011;63397;47.480;19.238;2023-05-16T11:58:43;9.73;;;5.20;;
74849;SDS011;63397;47.480;19.238;2023-05-16T12:01:46;10.00;;;5.33;;
74849;SDS011;63397;47.480;19.238;2023-05-16T12:04:52;11.23;;;5.68;;
74849;SDS011;63397;47.480;19.238;2023-05-16T12:07:54;11.82;;;4.45;;
74849;SDS011;63397;47.480;19.238;2023-05-16T12:10:58;8.05;;;4.45;;
74849;SDS011;63397;47.480;19.238;2023-05-16T12:14:01;10.43;;;5.63;;
74849;SDS011;63397;47.480;19.238;2023-05-16T12:17:04;8.13;;;4.43;;
74849;SDS011;63397;47.480;19.238;2023-05-16T12:20:07;9.82;;;4.43;;
74849;SDS011;63397;47.480;19.238;2023-05-16T12:23:15;9.02;;;4.30;;
74849;SDS011;63397;47.480;19.238;2023-05-16T12:26:27;7.55;;;3.78;;
74849;SDS011;63397;47.480;19.238;2023-05-16T12:29:32;10.98;;;4.75;;
74849;SDS011;63397;47.480;19.238;2023-05-16T12:32:37;9.70;;;5.30;;
74849;SDS011;63397;47.480;19.238;2023-05-16T12:35:40;10.18;;;5.35;;
74849;SDS011;63397;47.480;19.238;2023-05-16T12:38:45;8.43;;;4.60;;
74849;SDS011;63397;47.480;19.238;2023-05-16T12:41:48;9.30;;;4.90;;
74849;SDS011;63397;47.480;19.238;2023-05-16T12:44:50;8.43;;;4.32;;
74849;SDS011;63397;47.480;19.238;2023-05-16T12:47:56;10.10;;;5.33;;
74849;SDS011;63397;47.480;19.238;2023-05-16T12:51:16;9.40;;;4.88;;
74849;SDS011;63397;47.480;19.238;2023-05-16T12:54:20;10.68;;;5.07;;
74849;SDS011;63397;47.480;19.238;2023-05-16T12:57:24;9.43;;;4.80;;
74849;SDS011;63397;47.480;19.238;2023-05-16T13:00:27;10.02;;;5.43;;
74849;SDS011;63397;47.480;19.238;2023-05-16T13:03:30;11.00;;;5.53;;
74849;SDS011;63397;47.480;19.238;2023-05-16T13:06:36;10.65;;;5.22;;
74849;SDS011;63397;47.480;19.238;2023-05-16T13:09:59;10.10;;;5.25;;
74849;SDS011;63397;47.480;19.238;2023-05-16T13:13:01;11.02;;;5.68;;
74849;SDS011;63397;47.480;19.238;2023-05-16T13:16:05;11.57;;;5.05;;
74849;SDS011;63397;47.480;19.238;2023-05-16T13:19:07;7.97;;;4.50;;
74849;SDS011;63397;47.480;19.238;2023-05-16T13:22:10;11.07;;;5.75;;
74849;SDS011;63397;47.480;19.238;2023-05-16T13:25:13;10.63;;;6.03;;
74849;SDS011;63397;47.480;19.238;2023-05-16T13:28:15;11.07;;;6.35;;
74849;SDS011;63397;47.480;19.238;2023-05-16T13:31:18;11.60;;;5.57;;
74849;SDS011;63397;47.480;19.238;2023-05-16T13:34:20;11.03;;;5.33;;
74849;SDS011;63397;47.480;19.238;2023-05-16T13:37:22;9.18;;;4.82;;
74849;SDS011;63397;47.480;19.238;2023-05-16T13:40:28;10.48;;;5.95;;
74849;SDS011;63397;47.480;19.238;2023-05-16T13:43:30;11.95;;;5.50;;
74849;SDS011;63397;47.480;19.238;2023-05-16T13:46:32;12.15;;;6.22;;
74849;SDS011;63397;47.480;19.238;2023-05-16T13:49:35;9.57;;;5.40;;
74849;SDS011;63397;47.480;19.238;2023-05-16T13:52:38;11.20;;;5.70;;
74849;SDS011;63397;47.480;19.238;2023-05-16T13:55:41;10.00;;;4.93;;
74849;SDS011;63397;47.480;19.238;2023-05-16T13:58:43;11.98;;;5.85;;
74849;SDS011;63397;47.480;19.238;2023-05-16T14:02:03;11.00;;;5.95;;
74849;SDS011;63397;47.480;19.238;2023-05-16T14:05:06;11.53;;;6.20;;
74849;SDS011;63397;47.480;19.238;2023-05-16T14:08:08;10.35;;;5.53;;
74849;SDS011;63397;47.480;19.238;2023-05-16T14:11:10;12.35;;;5.78;;
74849;SDS011;63397;47.480;19.238;2023-05-16T14:14:13;9.20;;;4.95;;
74849;SDS011;63397;47.480;19.238;2023-05-16T14:17:15;12.57;;;5.07;;
74849;SDS011;63397;47.480;19.238;2023-05-16T14:20:17;8.70;;;4.73;;
74849;SDS011;63397;47.480;19.238;2023-05-16T14:23:20;9.93;;;5.10;;
74849;SDS011;63397;47.480;19.238;2023-05-16T14:26:22;11.95;;;6.30;;
74849;SDS011;63397;47.480;19.238;2023-05-16T14:29:26;9.13;;;4.55;;
74849;SDS011;63397;47.480;19.238;2023-05-16T14:32:28;12.57;;;6.10;;
74849;SDS011;63397;47.480;19.238;2023-05-16T14:35:31;11.40;;;5.97;;
74849;SDS011;63397;47.480;19.238;2023-05-16T14:38:33;14.10;;;6.65;;
74849;SDS011;63397;47.480;19.238;2023-05-16T14:41:36;10.48;;;6.00;;
74849;SDS011;63397;47.480;19.238;2023-05-16T14:44:38;12.27;;;6.88;;
74849;SDS011;63397;47.480;19.238;2023-05-16T14:47:40;12.60;;;5.95;;
74849;SDS011;63397;47.480;19.238;2023-05-16T14:50:43;12.07;;;6.33;;
74849;SDS011;63397;47.480;19.238;2023-05-16T14:53:45;12.80;;;6.00;;
74849;SDS011;63397;47.480;19.238;2023-05-16T14:56:48;13.25;;;7.05;;
74849;SDS011;63397;47.480;19.238;2023-05-16T14:59:50;12.07;;;6.25;;
74849;SDS011;63397;47.480;19.238;2023-05-16T15:02:52;14.30;;;6.57;;
74849;SDS011;63397;47.480;19.238;2023-05-16T15:05:55;12.93;;;6.60;;
74849;SDS011;63397;47.480;19.238;2023-05-16T15:08:58;16.48;;;6.70;;
74849;SDS011;63397;47.480;19.238;2023-05-16T15:12:00;13.57;;;6.50;;
74849;SDS011;63397;47.480;19.238;2023-05-16T15:15:03;11.98;;;6.38;;
74849;SDS011;63397;47.480;19.238;2023-05-16T15:18:05;13.13;;;6.05;;
74849;SDS011;63397;47.480;19.238;2023-05-16T15:21:08;14.23;;;6.17;;
74849;SDS011;63397;47.480;19.238;2023-05-16T15:24:10;11.38;;;6.10;;
74849;SDS011;63397;47.480;19.238;2023-05-16T15:27:14;12.00;;;6.30;;
74849;SDS011;63397;47.480;19.238;2023-05-16T15:30:16;13.23;;;6.40;;
74849;SDS011;63397;47.480;19.238;2023-05-16T15:33:20;12.82;;;6.60;;
74849;SDS011;63397;47.480;19.238;2023-05-16T15:36:22;12.03;;;6.63;;
74849;SDS011;63397;47.480;19.238;2023-05-16T15:39:24;11.27;;;6.43;;
74849;SDS011;63397;47.480;19.238;2023-05-16T15:42:27;13.48;;;7.43;;
74849;SDS011;63397;47.480;19.238;2023-05-16T15:45:29;12.45;;;7.07;;
74849;SDS011;63397;47.480;19.238;2023-05-16T15:48:32;12.27;;;6.30;;
74849;SDS011;63397;47.480;19.238;2023-05-16T15:51:34;14.63;;;7.37;;
74849;SDS011;63397;47.480;19.238;2023-05-16T15:54:36;12.55;;;7.07;;
74849;SDS011;63397;47.480;19.238;2023-05-16T15:57:39;14.95;;;7.45;;
74849;SDS011;63397;47.480;19.238;2023-05-16T16:00:41;13.70;;;7.20;;
74849;SDS011;63397;47.480;19.238;2023-05-16T16:03:44;15.70;;;7.68;;
74849;SDS011;63397;47.480;19.238;2023-05-16T16:06:47;15.03;;;7.33;;
74849;SDS011;63397;47.480;19.238;2023-05-16T16:09:49;14.98;;;7.15;;
74849;SDS011;63397;47.480;19.238;2023-05-16T16:13:01;14.73;;;7.80;;
74849;SDS011;63397;47.480;19.238;2023-05-16T16:16:04;15.32;;;7.65;;
74849;SDS011;63397;47.480;19.238;2023-05-16T16:19:07;14.82;;;7.85;;
74849;SDS011;63397;47.480;19.238;2023-05-16T16:22:09;17.13;;;8.10;;
74849;SDS011;63397;47.480;19.238;2023-05-16T16:25:12;17.48;;;7.65;;
74849;SDS011;63397;47.480;19.238;2023-05-16T16:28:14;20.52;;;6.85;;
74849;SDS011;63397;47.480;19.238;2023-05-16T16:31:16;16.35;;;8.40;;
74849;SDS011;63397;47.480;19.238;2023-05-16T16:34:19;14.35;;;6.80;;
74849;SDS011;63397;47.480;19.238;2023-05-16T16:37:24;16.83;;;7.60;;
74849;SDS011;63397;47.480;19.238;2023-05-16T16:40:26;13.35;;;6.85;;
74849;SDS011;63397;47.480;19.238;2023-05-16T16:43:29;15.90;;;7.00;;
74849;SDS011;63397;47.480;19.238;2023-05-16T16:46:31;14.70;;;6.93;;
74849;SDS011;63397;47.480;19.238;2023-05-16T16:49:34;12.40;;;7.28;;
74849;SDS011;63397;47.480;19.238;2023-05-16T16:52:36;14.43;;;7.37;;
74849;SDS011;63397;47.480;19.238;2023-05-16T16:55:39;13.25;;;7.25;;
74849;SDS011;63397;47.480;19.238;2023-05-16T16:58:42;15.00;;;7.32;;
74849;SDS011;63397;47.480;19.238;2023-05-16T17:01:44;11.18;;;6.30;;
74849;SDS011;63397;47.480;19.238;2023-05-16T17:04:46;16.02;;;6.97;;
74849;SDS011;63397;47.480;19.238;2023-05-16T17:07:49;17.03;;;6.50;;
74849;SDS011;63397;47.480;19.238;2023-05-16T17:10:52;13.80;;;6.68;;
74849;SDS011;63397;47.480;19.238;2023-05-16T17:13:55;13.43;;;7.15;;
74849;SDS011;63397;47.480;19.238;2023-05-16T17:17:00;15.05;;;7.15;;
74849;SDS011;63397;47.480;19.238;2023-05-16T17:20:03;13.25;;;6.03;;
74849;SDS011;63397;47.480;19.238;2023-05-16T17:23:08;11.13;;;6.10;;
74849;SDS011;63397;47.480;19.238;2023-05-16T17:26:10;15.38;;;6.90;;
74849;SDS011;63397;47.480;19.238;2023-05-16T17:29:14;12.20;;;6.10;;
74849;SDS011;63397;47.480;19.238;2023-05-16T17:32:16;13.70;;;6.75;;
74849;SDS011;63397;47.480;19.238;2023-05-16T17:35:21;10.82;;;5.95;;
74849;SDS011;63397;47.480;19.238;2023-05-16T17:38:23;10.50;;;5.73;;
74849;SDS011;63397;47.480;19.238;2023-05-16T17:41:25;13.07;;;6.47;;
74849;SDS011;63397;47.480;19.238;2023-05-16T17:44:28;13.25;;;6.22;;
74849;SDS011;63397;47.480;19.238;2023-05-16T17:47:30;14.75;;;6.60;;
74849;SDS011;63397;47.480;19.238;2023-05-16T17:50:33;13.60;;;6.30;;
74849;SDS011;63397;47.480;19.238;2023-05-16T17:53:36;11.63;;;5.53;;
74849;SDS011;63397;47.480;19.238;2023-05-16T17:56:38;10.65;;;5.32;;
74849;SDS011;63397;47.480;19.238;2023-05-16T17:59:41;13.20;;;6.20;;
74849;SDS011;63397;47.480;19.238;2023-05-16T18:02:43;12.02;;;5.82;;
74849;SDS011;63397;47.480;19.238;2023-05-16T18:05:46;10.77;;;5.43;;
74849;SDS011;63397;47.480;19.238;2023-05-16T18:08:50;9.27;;;5.37;;